This is the latest recevied weather packets stored in our database for station/object W5CMS-13. If no packets are shown the sender has not sent any weather packets the latest 1 day(s).
| Time | Temp. | Humidity | Pressure | Rain* | Wind** | Luminosity | Snow |
|---|---|---|---|---|---|---|---|
| 1778049016 | 15° C | 79% | 1008.5 hPa | 0 mm | 0.45 m/s, 23° | - | - |
| 1778047816 | 15.56° C | 79% | 1008.6 hPa | 0 mm | 0.45 m/s, 23° | - | - |
| 1778046616 | 15.56° C | 80% | 1008.6 hPa | 0 mm | 0.45 m/s, 23° | - | - |
| 1778044816 | 16.11° C | 80% | 1008.5 hPa | 0 mm | 0.89 m/s, 23° | - | - |
| 1778044216 | 16.67° C | 80% | 1008.5 hPa | 0 mm | 0.45 m/s, 23° | - | - |
| 1778043617 | 16.67° C | 80% | 1008.4 hPa | 0 mm | 0.45 m/s, 0° | - | - |
| 1778042416 | 17.22° C | 80% | 1008.4 hPa | 0 mm | 0.45 m/s, 23° | - | - |
| 1778041216 | 17.78° C | 80% | 1008.1 hPa | 0 mm | 0.45 m/s, 23° | - | - |
| 1778040616 | 17.78° C | 80% | 1007.9 hPa | 0 mm | 0.45 m/s, 23° | - | - |
| 1778037016 | 20° C | 78% | 1007 hPa | 0 mm | 0.45 m/s, 0° | - | - |
| 1778035816 | 20.56° C | 77% | 1006.9 hPa | 0 mm | 0.45 m/s, 23° | - | - |
| 1778034017 | 21.67° C | 77% | 1005.9 hPa | 0 mm | 0.45 m/s, 23° | - | - |
| 1778032216 | 22.78° C | 74% | 1005.4 hPa | 0 mm | 0.45 m/s, 23° | - | - |
| 1778029816 | 23.33° C | 73% | 1005 hPa | 0 mm | 0.45 m/s, 23° | - | - |
| 1778028016 | 23.89° C | 71% | 1004.5 hPa | 0 mm | 0.45 m/s, 23° | - | - |
| 1778025616 | 26.11° C | 68% | 1003.9 hPa | 0 mm | 0.45 m/s, 0° | - | - |
| 1778024416 | 27.78° C | 64% | 1003.7 hPa | 0 mm | 0.45 m/s, 0° | - | - |
| 1778023816 | 28.89° C | 62% | 1003.8 hPa | 0 mm | 0.45 m/s, 23° | - | - |
| 1778023216 | 30° C | 57% | 1003.4 hPa | 0 mm | 0.45 m/s, 0° | - | - |
| 1778022616 | 30.56° C | 54% | 1003.3 hPa | 0 mm | 0.45 m/s, 23° | - | - |
| 1778021416 | 32.22° C | 56% | 1003 hPa | 0 mm | 0.45 m/s, 248° | - | - |
| 1778020816 | 31.67° C | 57% | 1002.9 hPa | 0 mm | 0.45 m/s, 203° | - | - |
| 1778019616 | 31.67° C | 57% | 1002.6 hPa | 0 mm | 0.89 m/s, 248° | - | - |
| 1778018416 | 32.22° C | 58% | 1002.8 hPa | 0 mm | 0.45 m/s, 248° | - | - |
| 1778017816 | 31.67° C | 59% | 1002.9 hPa | 0 mm | 0.45 m/s, 248° | - | - |
* Rain latest hour (hover to see other rain measurements)
** Current wind speed in m/s (hover to see current wind gust speed)